Time;durP1;ratioP1;P1;durP2;ratioP2;P2;SDS_P1;SDS_P2;PMS_P1;PMS_P2;Temp;Humidity;BMP_temperature;BMP_pressure;BME280_temperature;BME280_humidity;BME280_pressure;Samples;Min_cycle;Max_cycle;Signal;HPM_P1;HPM_P2
2023/02/20 00:00:38;;;;;;;16.30;14.90;;;4.90;89.20;;;;;;4919117;29;20559;-89
2023/02/20 00:03:04;;;;;;;16.80;15.37;;;4.90;89.20;;;;;;4919210;29;20282;-88
2023/02/20 00:05:31;;;;;;;17.17;15.67;;;4.90;89.20;;;;;;4935950;29;20615;-88
2023/02/20 00:07:56;;;;;;;15.87;14.67;;;5.00;89.10;;;;;;4919422;29;20180;-88
2023/02/20 00:10:23;;;;;;;17.43;15.93;;;5.00;89.10;;;;;;4919231;29;20670;-88
2023/02/20 00:12:49;;;;;;;16.80;15.37;;;5.00;89.00;;;;;;4919023;29;20187;-88
2023/02/20 00:15:15;;;;;;;17.53;16.07;;;5.00;89.00;;;;;;4918864;29;20203;-88
2023/02/20 00:17:42;;;;;;;18.00;15.83;;;5.00;89.10;;;;;;4936331;29;20542;-88
2023/02/20 00:20:09;;;;;;;15.77;14.57;;;5.00;89.20;;;;;;4920082;29;20211;-88
2023/02/20 00:22:35;;;;;;;16.77;15.20;;;5.00;89.20;;;;;;4935903;29;20630;-89
2023/02/20 00:25:00;;;;;;;16.63;15.43;;;5.00;89.20;;;;;;4918948;29;20203;-88
2023/02/20 00:27:26;;;;;;;17.77;16.00;;;5.00;89.20;;;;;;4903069;29;20215;-88
2023/02/20 00:29:51;;;;;;;16.43;14.90;;;5.00;89.30;;;;;;4936097;29;20186;-89
2023/02/20 00:32:17;;;;;;;15.83;14.83;;;5.00;89.30;;;;;;4918853;29;20222;-88
2023/02/20 00:34:42;;;;;;;17.13;15.50;;;5.10;89.20;;;;;;4918729;29;20196;-89
2023/02/20 00:37:09;;;;;;;16.53;15.20;;;5.10;89.00;;;;;;4918799;29;20571;-88
2023/02/20 00:39:34;;;;;;;14.70;13.80;;;5.20;88.90;;;;;;4918889;29;20244;-88
2023/02/20 00:42:00;;;;;;;15.90;14.77;;;5.20;89.00;;;;;;4936094;29;20645;-88
2023/02/20 00:44:26;;;;;;;16.80;15.20;;;5.20;88.80;;;;;;4919379;29;20183;-88
2023/02/20 00:46:51;;;;;;;15.97;14.80;;;5.20;88.60;;;;;;4918637;29;20714;-88
2023/02/20 00:49:17;;;;;;;15.77;14.60;;;5.20;88.60;;;;;;4935790;29;20247;-88
2023/02/20 00:51:42;;;;;;;15.73;14.37;;;5.20;88.60;;;;;;4918964;29;20365;-88
2023/02/20 00:54:08;;;;;;;15.27;14.17;;;5.30;88.10;;;;;;4918667;29;20267;-88
2023/02/20 00:56:33;;;;;;;16.17;14.83;;;5.30;88.40;;;;;;4935685;29;20202;-88
2023/02/20 00:58:59;;;;;;;15.37;14.03;;;5.30;88.20;;;;;;4919531;29;20184;-88
2023/02/20 01:01:25;;;;;;;15.63;14.27;;;5.30;88.20;;;;;;4922222;29;20183;-88
2023/02/20 01:03:51;;;;;;;17.63;16.10;;;5.30;88.10;;;;;;4922566;29;20668;-88
2023/02/20 01:06:16;;;;;;;15.33;14.13;;;5.30;88.10;;;;;;4922402;29;20275;-89
2023/02/20 01:08:42;;;;;;;16.80;15.40;;;5.50;87.90;;;;;;4922195;29;20180;-89
2023/02/20 01:11:07;;;;;;;15.30;14.30;;;5.50;87.80;;;;;;4922212;29;20234;-89
2023/02/20 01:13:33;;;;;;;16.03;14.63;;;5.50;87.80;;;;;;4922097;29;20207;-88
2023/02/20 01:15:58;;;;;;;17.20;15.67;;;5.60;87.60;;;;;;4921819;29;20214;-88
2023/02/20 01:18:24;;;;;;;15.90;14.70;;;5.60;87.70;;;;;;4922057;29;20183;-89
2023/02/20 01:20:50;;;;;;;16.90;15.60;;;5.60;87.60;;;;;;4922043;29;20180;-88
2023/02/20 01:23:16;;;;;;;16.57;15.47;;;5.60;87.60;;;;;;4921968;29;20326;-88
2023/02/20 01:25:41;;;;;;;16.50;15.10;;;5.70;87.70;;;;;;4922312;29;20396;-89
2023/02/20 01:28:07;;;;;;;16.33;14.93;;;5.70;87.40;;;;;;4921874;29;20258;-88
2023/02/20 01:30:32;;;;;;;16.83;15.40;;;5.70;87.50;;;;;;4922517;29;20192;-88
2023/02/20 01:32:58;;;;;;;16.53;15.23;;;5.70;87.70;;;;;;4922565;29;20243;-88
2023/02/20 01:35:23;;;;;;;16.00;14.90;;;5.70;87.80;;;;;;4921731;29;20587;-88
2023/02/20 01:37:49;;;;;;;17.30;15.87;;;5.70;87.90;;;;;;4921731;29;20184;-88
2023/02/20 01:40:20;;;;;;;17.10;15.70;;;5.70;87.80;;;;;;4921684;29;20619;-88
2023/02/20 01:42:46;;;;;;;15.70;14.57;;;5.70;88.10;;;;;;4938674;29;20235;-88
2023/02/20 01:45:31;;;;;;;17.10;15.70;;;5.70;88.10;;;;;;4921446;29;20200;-88
2023/02/20 01:47:57;;;;;;;16.23;15.03;;;5.80;87.70;;;;;;4938609;29;20179;-89
2023/02/20 01:50:28;;;;;;;18.13;16.63;;;5.80;87.90;;;;;;4921449;29;20227;-89
2023/02/20 01:52:59;;;;;;;16.33;15.10;;;5.80;87.80;;;;;;4938676;29;20180;-89
2023/02/20 01:55:37;;;;;;;15.80;14.70;;;5.80;87.80;;;;;;4938740;29;20246;-88
2023/02/20 01:58:08;;;;;;;17.27;15.93;;;5.80;87.80;;;;;;4921463;29;20164;-88
2023/02/20 02:00:35;;;;;;;16.60;15.47;;;5.80;88.00;;;;;;4922304;29;20169;-88
2023/02/20 02:03:11;;;;;;;17.00;15.33;;;5.80;88.00;;;;;;4921253;29;20185;-88
2023/02/20 02:05:40;;;;;;;17.40;15.83;;;5.90;87.80;;;;;;4921506;29;20234;-88
2023/02/20 02:08:08;;;;;;;18.93;17.30;;;5.80;87.90;;;;;;4921489;29;20188;-88
2023/02/20 02:11:05;;;;;;;17.00;15.80;;;5.80;88.10;;;;;;4921316;29;20181;-88
2023/02/20 02:13:32;;;;;;;17.27;15.80;;;5.80;88.00;;;;;;4920972;29;20165;-88
2023/02/20 02:16:40;;;;;;;18.20;16.80;;;5.80;88.30;;;;;;4920982;29;20211;-88
2023/02/20 02:19:24;;;;;;;17.93;16.50;;;5.90;88.10;;;;;;4921092;29;20171;-88
2023/02/20 02:22:05;;;;;;;17.40;16.07;;;5.90;88.10;;;;;;4920989;29;20691;-88
2023/02/20 02:24:50;;;;;;;19.47;17.83;;;5.90;88.10;;;;;;4938043;29;20249;-88
2023/02/20 02:27:47;;;;;;;16.97;15.70;;;6.00;87.90;;;;;;4920804;29;20192;-88
2023/02/20 02:30:51;;;;;;;19.13;17.43;;;6.10;87.70;;;;;;4920814;29;20530;-88
2023/02/20 02:33:31;;;;;;;19.10;17.30;;;6.10;88.10;;;;;;4920045;29;20652;-89
2023/02/20 02:36:22;;;;;;;19.57;17.87;;;6.20;87.80;;;;;;4920551;29;20219;-88
2023/02/20 02:38:57;;;;;;;17.07;15.67;;;6.20;88.00;;;;;;4920805;29;20172;-88
2023/02/20 02:41:37;;;;;;;18.67;16.93;;;6.20;87.70;;;;;;4920651;29;20659;-89
2023/02/20 02:44:35;;;;;;;17.07;15.83;;;6.30;87.60;;;;;;4921097;29;20259;-88
2023/02/20 02:47:30;;;;;;;20.90;18.97;;;6.30;87.90;;;;;;4889377;29;20262;-88
2023/02/20 02:50:09;;;;;;;20.17;18.37;;;6.30;87.90;;;;;;4920332;29;20180;-88
2023/02/20 02:52:47;;;;;;;19.90;18.30;;;6.30;88.00;;;;;;4938553;29;20538;-88
2023/02/20 02:55:16;;;;;;;19.33;17.73;;;6.30;87.80;;;;;;4937300;29;20237;-88
2023/02/20 02:57:41;;;;;;;18.53;16.97;;;6.40;87.80;;;;;;4937257;29;20177;-88
2023/02/20 03:00:10;;;;;;;19.37;17.87;;;6.30;87.80;;;;;;4937832;29;20739;-89
2023/02/20 03:02:45;;;;;;;22.07;20.33;;;6.30;88.00;;;;;;4937164;29;20172;-89
2023/02/20 03:05:14;;;;;;;18.77;17.37;;;6.30;87.90;;;;;;4937061;29;20195;-88
2023/02/20 03:07:44;;;;;;;20.67;18.53;;;6.30;88.00;;;;;;4920287;29;20219;-88
2023/02/20 03:10:19;;;;;;;22.03;20.03;;;6.30;88.20;;;;;;4920032;29;20618;-88
2023/02/20 03:12:49;;;;;;;21.70;19.70;;;6.30;87.90;;;;;;4920114;29;20168;-88
2023/02/20 03:15:37;;;;;;;22.83;21.03;;;6.40;87.60;;;;;;4920344;29;20614;-88
2023/02/20 03:18:11;;;;;;;19.93;18.43;;;6.30;88.20;;;;;;4919837;29;20173;-88
2023/02/20 03:20:58;;;;;;;22.80;20.83;;;6.40;88.00;;;;;;4920166;29;20523;-88
2023/02/20 03:23:30;;;;;;;19.47;18.07;;;6.30;87.90;;;;;;4935903;29;20195;-88
2023/02/20 03:26:00;;;;;;;19.60;18.10;;;6.30;87.60;;;;;;4919810;29;20350;-88
2023/02/20 03:28:33;;;;;;;20.57;18.70;;;6.30;87.60;;;;;;4936794;29;20172;-88
2023/02/20 03:31:02;;;;;;;21.03;19.40;;;6.40;87.40;;;;;;4919757;29;20165;-88
2023/02/20 03:45:04;;;;;;;20.27;18.67;;;6.50;87.40;;;;;;4936422;29;20738;-88
2023/02/20 03:47:32;;;;;;;21.73;19.73;;;6.50;87.50;;;;;;4936267;29;20212;-89
2023/02/20 03:50:00;;;;;;;22.03;20.13;;;6.50;87.70;;;;;;4919238;29;20649;-88
2023/02/20 03:52:26;;;;;;;22.40;20.33;;;6.40;87.70;;;;;;4919297;29;20324;-88
2023/02/20 03:54:52;;;;;;;21.93;20.03;;;6.50;87.60;;;;;;4919188;29;20235;-88
2023/02/20 03:57:29;;;;;;;22.77;19.43;;;6.50;87.50;;;;;;4919344;29;20186;-88
2023/02/20 04:00:00;;;;;;;20.20;18.53;;;6.60;87.20;;;;;;4919444;29;20184;-88
2023/02/20 04:02:38;;;;;;;22.60;20.70;;;6.50;87.30;;;;;;4919296;29;20250;-88
2023/02/20 04:05:09;;;;;;;24.17;22.40;;;6.40;87.60;;;;;;4919207;29;20701;-88
2023/02/20 04:07:49;;;;;;;22.77;20.80;;;6.40;87.70;;;;;;4919133;29;20212;-88
2023/02/20 04:10:21;;;;;;;23.80;21.67;;;6.40;87.90;;;;;;4919408;29;20181;-88
2023/02/20 04:12:49;;;;;;;22.07;20.10;;;6.30;88.10;;;;;;4936119;29;20251;-88
2023/02/20 04:15:16;;;;;;;23.17;21.30;;;6.30;88.20;;;;;;4918893;29;20204;-88
2023/02/20 04:18:05;;;;;;;24.00;21.67;;;6.30;88.20;;;;;;4936025;29;20649;-88
2023/02/20 04:20:30;;;;;;;24.00;21.87;;;6.30;88.10;;;;;;4918441;29;20287;-88
2023/02/20 04:23:02;;;;;;;23.43;21.53;;;6.30;88.20;;;;;;4935969;29;20211;-88
2023/02/20 04:25:49;;;;;;;25.53;22.97;;;6.30;88.30;;;;;;4918895;29;20635;-88
2023/02/20 04:28:15;;;;;;;24.77;22.40;;;6.30;88.50;;;;;;4919661;29;20199;-88
2023/02/20 04:30:41;;;;;;;25.30;22.63;;;6.30;88.30;;;;;;4918847;29;20184;-88
2023/02/20 04:33:11;;;;;;;24.27;22.13;;;6.30;88.10;;;;;;4918925;29;20239;-88
2023/02/20 04:35:36;;;;;;;23.47;21.53;;;6.30;88.30;;;;;;4922759;29;20216;-88
2023/02/20 04:38:02;;;;;;;23.80;21.80;;;6.30;88.30;;;;;;4923062;29;20186;-88
2023/02/20 04:40:27;;;;;;;25.97;23.73;;;6.30;88.20;;;;;;4922725;29;20239;-88
2023/02/20 04:42:53;;;;;;;25.80;23.17;;;6.20;88.40;;;;;;4923303;29;20216;-88
2023/02/20 04:45:18;;;;;;;23.70;21.57;;;6.20;88.60;;;;;;4922553;29;20223;-88
2023/02/20 04:47:45;;;;;;;22.80;20.90;;;6.30;88.60;;;;;;4922790;29;20661;-88
2023/02/20 04:50:23;;;;;;;26.23;23.90;;;6.30;88.40;;;;;;4922561;29;20270;-88
2023/02/20 04:52:49;;;;;;;25.00;22.67;;;6.30;88.40;;;;;;4923295;29;20259;-88
2023/02/20 04:55:15;;;;;;;23.37;21.27;;;6.30;88.40;;;;;;4922834;29;20287;-88
2023/02/20 04:57:41;;;;;;;25.93;23.27;;;6.30;88.50;;;;;;4922387;29;20780;-88
2023/02/20 05:00:07;;;;;;;26.07;23.50;;;6.30;88.40;;;;;;4922374;29;20182;-88
2023/02/20 05:02:33;;;;;;;27.53;25.13;;;6.30;88.40;;;;;;4923161;29;20319;-88
2023/02/20 05:04:59;;;;;;;27.97;25.33;;;6.30;88.40;;;;;;4939781;29;20224;-88
2023/02/20 05:07:25;;;;;;;27.57;24.93;;;6.30;88.50;;;;;;4922859;29;20200;-88
2023/02/20 05:09:50;;;;;;;28.10;25.37;;;6.40;88.40;;;;;;4922214;29;20716;-88
2023/02/20 05:12:16;;;;;;;28.13;25.43;;;6.30;88.60;;;;;;4922189;29;20645;-88
2023/02/20 05:14:41;;;;;;;28.60;25.87;;;6.40;88.60;;;;;;4922023;29;20208;-88
2023/02/20 05:17:07;;;;;;;26.73;24.30;;;6.30;88.70;;;;;;4922173;29;20231;-88
2023/02/20 05:19:32;;;;;;;25.93;23.63;;;6.30;88.60;;;;;;4922255;29;20184;-88
2023/02/20 05:24:43;;;;;;;27.47;24.97;;;6.40;88.50;;;;;;4939185;29;20192;-88
2023/02/20 05:27:09;;;;;;;28.30;25.63;;;6.40;88.60;;;;;;4922631;29;20274;-88
2023/02/20 05:29:34;;;;;;;23.50;21.60;;;6.40;88.70;;;;;;4922017;29;20656;-88
2023/02/20 05:32:00;;;;;;;27.30;24.50;;;6.50;88.40;;;;;;4921963;29;20180;-88
2023/02/20 05:34:25;;;;;;;29.00;26.20;;;6.50;88.40;;;;;;4921838;29;20219;-88
2023/02/20 05:36:52;;;;;;;30.90;26.83;;;6.40;88.60;;;;;;4922026;29;20200;-88
2023/02/20 05:39:17;;;;;;;29.73;26.83;;;6.50;88.60;;;;;;4938742;29;20176;-88
2023/02/20 05:41:43;;;;;;;28.40;25.93;;;6.40;88.80;;;;;;4938603;29;20211;-88
2023/02/20 05:44:09;;;;;;;29.67;26.80;;;6.50;88.70;;;;;;4921593;29;20180;-88
2023/02/20 05:46:40;;;;;;;32.03;27.97;;;6.40;88.90;;;;;;4920499;29;20298;-88
2023/02/20 05:49:05;;;;;;;26.67;24.47;;;6.40;89.00;;;;;;4938637;29;20160;-88
2023/02/20 05:51:31;;;;;;;32.50;29.13;;;6.40;89.10;;;;;;4921586;29;20190;-88
2023/02/20 05:53:57;;;;;;;31.47;28.20;;;6.40;88.90;;;;;;4938428;29;20176;-88
2023/02/20 05:56:23;;;;;;;28.27;25.57;;;6.40;89.10;;;;;;4921248;29;20204;-88
2023/02/20 05:58:49;;;;;;;29.17;25.93;;;6.50;89.10;;;;;;4938348;29;20183;-88
2023/02/20 06:01:23;;;;;;;32.30;29.00;;;6.50;89.10;;;;;;4922362;29;20194;-88
2023/02/20 06:03:50;;;;;;;30.93;27.70;;;6.50;89.00;;;;;;4938190;29;20187;-88
2023/02/20 06:06:16;;;;;;;30.53;27.47;;;6.50;89.10;;;;;;4921329;29;20695;-88
2023/02/20 06:08:42;;;;;;;27.67;24.80;;;6.60;89.20;;;;;;4921217;29;20191;-88
2023/02/20 06:11:10;;;;;;;27.80;25.20;;;6.60;89.00;;;;;;4921135;29;20184;-88
2023/02/20 06:13:38;;;;;;;30.70;27.77;;;6.70;88.80;;;;;;4921012;29;20190;-89
2023/02/20 06:16:04;;;;;;;27.83;25.27;;;6.70;89.00;;;;;;4920857;29;20255;-88
2023/02/20 06:18:29;;;;;;;32.23;28.37;;;6.70;89.00;;;;;;4938238;29;20184;-88
2023/02/20 06:20:55;;;;;;;28.13;25.50;;;6.80;89.00;;;;;;4921222;29;20636;-88
2023/02/20 06:23:21;;;;;;;28.37;25.77;;;6.80;88.90;;;;;;4920815;29;20272;-88
2023/02/20 06:25:46;;;;;;;31.57;28.37;;;6.90;88.70;;;;;;4920831;29;20697;-88
2023/02/20 06:28:12;;;;;;;25.30;22.77;;;6.90;88.90;;;;;;4920770;29;20184;-87
2023/02/20 06:30:37;;;;;;;26.67;24.40;;;7.00;88.70;;;;;;4920848;29;20207;-88
2023/02/20 06:33:03;;;;;;;26.17;23.47;;;7.00;88.60;;;;;;4921069;29;20532;-88
2023/02/20 06:35:29;;;;;;;31.90;28.60;;;7.00;88.80;;;;;;4920423;29;20220;-89
2023/02/20 06:37:54;;;;;;;30.77;27.70;;;7.10;88.70;;;;;;4920572;29;20191;-88
2023/02/20 06:40:20;;;;;;;26.07;23.73;;;7.00;89.00;;;;;;4920672;29;20184;-88
2023/02/20 06:42:45;;;;;;;30.93;27.67;;;7.00;89.10;;;;;;4937890;29;20188;-88
2023/02/20 06:45:11;;;;;;;30.47;27.27;;;7.10;89.20;;;;;;4937741;29;20211;-88
2023/02/20 06:47:36;;;;;;;24.17;21.83;;;7.10;89.40;;;;;;4920526;29;20208;-88
2023/02/20 06:50:02;;;;;;;32.83;29.73;;;7.10;89.50;;;;;;4920501;29;20641;-88
2023/02/20 06:52:28;;;;;;;37.57;33.50;;;7.10;89.50;;;;;;4920520;29;20195;-88
2023/02/20 06:54:53;;;;;;;34.83;31.37;;;7.10;89.70;;;;;;4920227;29;20199;-88
2023/02/20 06:57:19;;;;;;;42.33;35.40;;;7.20;89.60;;;;;;4920120;29;20180;-88
2023/02/20 06:59:46;;;;;;;34.93;31.33;;;7.20;89.60;;;;;;4937112;29;20266;-88
2023/02/20 07:02:13;;;;;;;36.03;32.47;;;7.20;89.60;;;;;;4920292;29;20731;-88
2023/02/20 07:04:38;;;;;;;32.10;26.97;;;7.20;89.90;;;;;;4920530;29;20195;-87
2023/02/20 07:07:04;;;;;;;34.50;31.13;;;7.30;89.80;;;;;;4936920;29;20572;-88
2023/02/20 07:09:30;;;;;;;38.10;34.10;;;7.30;89.80;;;;;;4937071;29;20179;-88
2023/02/20 07:11:56;;;;;;;36.50;32.77;;;7.30;89.80;;;;;;4919973;29;20184;-88
2023/02/20 07:14:21;;;;;;;34.87;31.37;;;7.20;90.00;;;;;;4920139;29;20652;-88
2023/02/20 07:16:47;;;;;;;40.23;36.17;;;7.20;90.20;;;;;;4919975;29;20251;-88
2023/02/20 07:19:13;;;;;;;36.17;32.77;;;7.20;90.20;;;;;;4920431;29;20636;-88
2023/02/20 07:21:38;;;;;;;37.03;33.57;;;7.20;90.30;;;;;;4920549;29;20194;-88
2023/02/20 07:24:05;;;;;;;41.10;36.73;;;7.30;90.30;;;;;;4919746;29;20247;-88
2023/02/20 07:26:30;;;;;;;41.37;35.40;;;7.30;90.40;;;;;;4919643;29;20208;-88
2023/02/20 07:28:57;;;;;;;37.30;33.40;;;7.20;90.50;;;;;;4936680;29;20640;-88
2023/02/20 07:31:24;;;;;;;39.03;35.27;;;7.30;90.70;;;;;;4919622;29;20559;-88
2023/02/20 07:33:50;;;;;;;40.20;36.20;;;7.30;90.60;;;;;;4919532;29;20180;-88
2023/02/20 07:36:16;;;;;;;39.10;35.10;;;7.30;90.60;;;;;;4919559;29;20219;-88
2023/02/20 07:38:42;;;;;;;44.93;36.10;;;7.30;90.60;;;;;;4919625;29;20187;-88
2023/02/20 07:41:08;;;;;;;47.50;38.00;;;7.30;90.60;;;;;;4936716;29;20190;-88
2023/02/20 07:43:34;;;;;;;37.83;34.17;;;7.30;90.70;;;;;;4936802;29;20184;-88
2023/02/20 07:45:59;;;;;;;39.87;35.87;;;7.30;90.90;;;;;;4919446;29;20247;-88
2023/02/20 07:48:25;;;;;;;37.70;33.57;;;7.30;91.00;;;;;;4919390;29;20176;-88
2023/02/20 07:50:51;;;;;;;38.30;34.17;;;7.40;91.00;;;;;;4919395;29;20271;-88
2023/02/20 07:53:18;;;;;;;40.63;36.77;;;7.40;90.90;;;;;;4919360;29;20210;-89
2023/02/20 07:55:44;;;;;;;44.40;40.03;;;7.40;90.90;;;;;;4920591;29;20228;-87
2023/02/20 07:58:09;;;;;;;43.50;38.37;;;7.50;91.00;;;;;;4919317;29;20180;-88
2023/02/20 08:00:35;;;;;;;39.07;35.17;;;7.50;91.10;;;;;;4919220;29;20641;-88
2023/02/20 08:03:00;;;;;;;39.77;35.67;;;7.50;91.10;;;;;;4919507;29;20550;-88
2023/02/20 08:05:26;;;;;;;44.87;40.10;;;7.50;91.20;;;;;;4919098;29;20287;-88
2023/02/20 08:07:52;;;;;;;48.80;43.70;;;7.60;91.10;;;;;;4919345;29;20204;-88
2023/02/20 08:10:21;;;;;;;48.57;43.37;;;7.60;91.10;;;;;;4919779;29;20187;-88
2023/02/20 08:12:48;;;;;;;46.80;39.77;;;7.60;91.10;;;;;;4919316;29;20179;-88
2023/02/20 08:15:13;;;;;;;37.03;33.43;;;7.60;91.20;;;;;;4919122;29;20579;-88
2023/02/20 08:17:40;;;;;;;43.00;38.97;;;7.70;91.20;;;;;;4935946;29;20187;-88
2023/02/20 08:20:06;;;;;;;47.93;43.10;;;7.60;91.30;;;;;;4919021;29;20188;-88
2023/02/20 08:22:33;;;;;;;45.47;41.57;;;7.60;91.40;;;;;;4918922;29;20180;-88
2023/02/20 08:24:59;;;;;;;47.20;42.10;;;7.60;91.50;;;;;;4918909;29;20207;-88
2023/02/20 08:27:24;;;;;;;46.93;38.90;;;7.70;91.40;;;;;;4935857;29;20270;-88
2023/02/20 08:29:50;;;;;;;41.70;37.67;;;7.70;91.40;;;;;;4918889;29;20191;-88
2023/02/20 08:32:16;;;;;;;44.87;40.07;;;7.80;91.30;;;;;;4918917;29;20624;-88
2023/02/20 08:34:41;;;;;;;48.17;43.17;;;7.80;91.50;;;;;;4935894;29;20196;-88
2023/02/20 08:37:08;;;;;;;40.70;36.80;;;7.80;91.50;;;;;;4935875;29;20663;-88
2023/02/20 08:39:34;;;;;;;47.93;42.67;;;7.80;91.50;;;;;;4918844;29;20184;-88
2023/02/20 08:42:00;;;;;;;37.87;33.47;;;7.90;91.60;;;;;;4918908;29;20194;-88
2023/02/20 08:44:25;;;;;;;38.37;33.73;;;8.00;91.50;;;;;;4918747;29;20183;-86
2023/02/20 08:46:51;;;;;;;38.07;32.67;;;8.00;91.40;;;;;;4918862;29;20684;-88
2023/02/20 08:49:18;;;;;;;41.67;33.77;;;8.00;91.30;;;;;;4919485;29;20190;-89
2023/02/20 08:51:45;;;;;;;38.73;33.07;;;8.00;91.50;;;;;;4918874;29;20211;-87
2023/02/20 08:54:11;;;;;;;35.63;32.13;;;8.10;91.50;;;;;;4918733;29;20211;-88
2023/02/20 08:56:37;;;;;;;44.73;40.03;;;8.20;91.40;;;;;;4918571;29;20680;-90
2023/02/20 08:59:02;;;;;;;36.20;32.70;;;8.10;91.40;;;;;;4935801;29;20214;-88
2023/02/20 09:01:28;;;;;;;35.60;32.60;;;8.10;91.60;;;;;;4919770;29;20584;-88
2023/02/20 09:03:54;;;;;;;35.13;32.13;;;8.10;91.70;;;;;;4918707;29;20184;-88
2023/02/20 09:06:20;;;;;;;42.40;38.50;;;8.20;91.70;;;;;;4935494;29;20192;-88
2023/02/20 09:08:45;;;;;;;43.57;38.63;;;8.20;91.50;;;;;;4918687;29;20186;-88
2023/02/20 09:11:11;;;;;;;43.43;39.23;;;8.30;91.50;;;;;;4918679;29;20176;-89
2023/02/20 09:13:47;;;;;;;35.63;32.30;;;8.30;91.40;;;;;;4918720;29;20176;-88
2023/02/20 09:16:15;;;;;;;38.80;35.03;;;8.30;91.40;;;;;;4918611;29;20207;-87
2023/02/20 09:18:40;;;;;;;38.83;35.57;;;8.30;91.50;;;;;;4918544;29;20176;-87
2023/02/20 09:21:11;;;;;;;43.27;38.53;;;8.30;91.40;;;;;;4938077;29;20180;-87
2023/02/20 09:23:37;;;;;;;38.07;33.03;;;8.30;91.40;;;;;;4923089;29;20186;-88
2023/02/20 09:26:04;;;;;;;33.77;30.37;;;8.30;91.50;;;;;;4921819;29;20299;-89
2023/02/20 09:28:29;;;;;;;41.43;36.87;;;8.40;91.20;;;;;;4921974;29;20184;-89
2023/02/20 09:30:56;;;;;;;35.93;32.43;;;8.40;91.30;;;;;;4921900;29;20180;-89
2023/02/20 09:33:23;;;;;;;36.53;32.77;;;8.40;91.30;;;;;;4922151;29;20231;-89
2023/02/20 09:35:50;;;;;;;36.17;32.73;;;8.40;91.20;;;;;;4922240;29;20228;-89
2023/02/20 09:38:16;;;;;;;43.77;35.77;;;8.50;91.20;;;;;;4922046;29;20208;-90
2023/02/20 09:40:44;;;;;;;34.43;31.57;;;8.50;91.30;;;;;;4938899;29;20548;-90
2023/02/20 09:43:14;;;;;;;33.60;30.30;;;8.50;91.20;;;;;;4921895;29;20211;-88
2023/02/20 09:45:51;;;;;;;34.90;31.40;;;8.60;91.20;;;;;;4938499;29;20738;-89
2023/02/20 09:48:33;;;;;;;39.23;35.17;;;8.60;91.10;;;;;;4938630;29;20196;-89
2023/02/20 09:51:03;;;;;;;33.20;28.17;;;8.60;91.20;;;;;;4906674;29;20238;-89
2023/02/20 09:53:46;;;;;;;31.93;28.77;;;8.60;91.20;;;;;;4922427;29;20171;-89
2023/02/20 09:56:18;;;;;;;37.00;33.80;;;8.60;91.00;;;;;;4939009;29;20203;-88
2023/02/20 09:59:09;;;;;;;35.47;32.13;;;8.70;91.00;;;;;;4938718;29;20168;-89
2023/02/20 10:01:39;;;;;;;30.70;28.27;;;8.70;90.90;;;;;;4922067;29;20263;-88
2023/02/20 10:04:19;;;;;;;32.87;29.37;;;8.70;90.80;;;;;;4921531;29;20169;-88
2023/02/20 10:06:46;;;;;;;35.47;31.83;;;8.80;90.70;;;;;;4921822;29;20200;-90
2023/02/20 10:09:14;;;;;;;36.70;33.10;;;8.80;90.70;;;;;;4921406;29;20168;-88
2023/02/20 10:12:10;;;;;;;30.27;28.00;;;8.70;90.70;;;;;;4922039;29;20183;-88
2023/02/20 10:15:03;;;;;;;33.73;30.33;;;8.80;90.70;;;;;;4922265;29;20640;-89
2023/02/20 10:17:58;;;;;;;34.57;30.90;;;8.80;90.70;;;;;;4922196;29;20227;-87
2023/02/20 10:20:45;;;;;;;36.30;32.53;;;8.80;90.70;;;;;;4915734;29;20195;-88
2023/02/20 10:23:26;;;;;;;34.70;29.83;;;8.80;90.70;;;;;;4921038;29;20195;-88
2023/02/20 10:25:58;;;;;;;34.57;31.23;;;8.80;90.50;;;;;;4920838;29;20211;-88
2023/02/20 10:28:25;;;;;;;39.23;32.77;;;8.80;90.60;;;;;;4920900;29;20286;-88
2023/02/20 10:30:54;;;;;;;36.13;32.30;;;8.80;90.60;;;;;;4920957;29;20180;-88
2023/02/20 10:33:44;;;;;;;34.27;30.67;;;8.80;90.60;;;;;;4937711;29;20176;-89
2023/02/20 10:36:26;;;;;;;37.93;32.63;;;8.80;90.70;;;;;;4920904;29;20219;-88
2023/02/20 10:39:00;;;;;;;35.33;29.10;;;8.80;90.60;;;;;;4920613;29;20560;-88
2023/02/20 10:41:47;;;;;;;35.67;28.83;;;8.90;90.50;;;;;;4920841;29;20180;-90
2023/02/20 10:44:36;;;;;;;31.60;28.97;;;8.80;90.50;;;;;;4908264;29;20723;-88
2023/02/20 10:47:27;;;;;;;31.73;28.23;;;8.90;90.40;;;;;;4912900;29;20239;-88
2023/02/20 10:49:58;;;;;;;33.23;29.77;;;8.80;90.50;;;;;;4920919;29;20664;-88
2023/02/20 10:52:29;;;;;;;32.67;29.97;;;8.90;90.50;;;;;;4938037;29;20160;-88
2023/02/20 10:55:10;;;;;;;33.37;30.60;;;8.90;90.50;;;;;;4937355;29;20275;-88
2023/02/20 10:57:43;;;;;;;31.60;28.70;;;8.90;90.60;;;;;;4921125;29;20175;-89
2023/02/20 15:41:26;;;;;;;41.63;38.20;;;9.20;92.80;;;;;;4980999;23;20249;-90
2023/02/20 15:43:52;;;;;;;43.50;39.77;;;9.20;93.00;;;;;;4929777;29;20180;-91
2023/02/20 15:46:21;;;;;;;45.67;41.57;;;9.10;93.10;;;;;;4929274;29;20292;-92
2023/02/20 15:48:47;;;;;;;47.90;43.77;;;9.10;93.40;;;;;;4930510;29;20279;-92
2023/02/20 15:51:20;;;;;;;49.13;44.97;;;9.00;93.40;;;;;;4934931;29;20644;-92
2023/02/20 15:53:57;;;;;;;49.47;45.43;;;9.10;93.40;;;;;;4932984;29;20179;-92
2023/02/20 15:56:33;;;;;;;52.30;47.30;;;9.00;93.50;;;;;;4937623;29;20203;-91
2023/02/20 15:59:11;;;;;;;52.22;47.75;;;9.00;93.60;;;;;;4934146;29;20409;-92
2023/02/20 16:01:45;;;;;;;53.90;49.27;;;9.00;93.80;;;;;;4936447;29;20176;-92
2023/02/20 16:04:21;;;;;;;55.63;50.97;;;9.00;93.80;;;;;;4939115;29;20240;-92
2023/02/20 16:06:47;;;;;;;55.97;50.53;;;9.00;93.80;;;;;;4937157;28;20255;-92
2023/02/20 16:09:13;;;;;;;55.13;50.20;;;9.00;93.90;;;;;;4939741;29;20188;-92
2023/02/20 16:11:50;;;;;;;58.33;53.20;;;9.00;94.00;;;;;;4938967;29;20207;-92
2023/02/20 16:14:19;;;;;;;58.90;53.10;;;9.00;94.10;;;;;;4939955;29;20200;-92
2023/02/20 16:16:52;;;;;;;59.97;55.07;;;8.90;94.20;;;;;;4937896;29;20275;-92
2023/02/20 16:19:20;;;;;;;59.80;55.30;;;8.90;94.20;;;;;;4933970;29;20176;-92
2023/02/20 16:22:05;;;;;;;64.77;59.90;;;8.90;94.30;;;;;;4939753;28;20236;-94
2023/02/20 16:24:38;;;;;;;68.33;63.23;;;8.90;94.40;;;;;;4939068;29;20200;-92
2023/02/20 16:27:23;;;;;;;72.47;66.53;;;8.90;94.50;;;;;;4939393;29;20206;-92
2023/02/20 16:29:54;;;;;;;72.20;66.67;;;8.90;94.60;;;;;;4938145;29;20180;-92
2023/02/20 16:32:28;;;;;;;78.23;72.23;;;8.90;94.60;;;;;;4937157;29;20176;-92
2023/02/20 16:35:14;;;;;;;79.43;73.43;;;8.80;94.60;;;;;;4939784;29;20172;-92
2023/02/20 16:37:39;;;;;;;84.40;78.30;;;8.80;94.70;;;;;;4940213;29;20187;-92
2023/02/20 16:40:12;;;;;;;86.13;80.47;;;8.80;94.80;;;;;;4941052;28;20195;-92
2023/02/20 16:42:39;;;;;;;87.23;81.33;;;8.80;94.90;;;;;;4939889;29;20268;-92
2023/02/20 16:45:12;;;;;;;91.10;84.67;;;8.80;94.90;;;;;;4939710;28;20206;-92
2023/02/20 16:47:37;;;;;;;91.33;82.63;;;8.80;94.90;;;;;;4939569;29;20231;-92
2023/02/20 16:50:14;;;;;;;81.93;76.03;;;8.80;94.90;;;;;;4941057;28;20195;-92
2023/02/20 16:52:41;;;;;;;83.77;78.07;;;8.90;94.90;;;;;;4940725;29;20145;-92
2023/02/20 16:55:30;;;;;;;82.33;75.90;;;8.90;94.70;;;;;;4940226;28;20199;-92
2023/02/20 16:57:56;;;;;;;82.67;77.03;;;8.90;94.70;;;;;;4942484;29;20176;-92
2023/02/20 17:00:26;;;;;;;83.20;77.87;;;8.80;94.70;;;;;;4939123;28;20215;-93
2023/02/20 17:02:55;;;;;;;89.97;83.07;;;8.90;94.70;;;;;;4938576;28;20198;-92
2023/02/20 17:05:24;;;;;;;90.13;83.57;;;8.90;94.80;;;;;;4939324;28;20208;-92
2023/02/20 17:07:53;;;;;;;90.77;84.23;;;8.90;94.80;;;;;;4955984;28;20184;-92
2023/02/20 17:10:20;;;;;;;83.27;77.83;;;8.90;94.80;;;;;;4939343;28;20275;-93
2023/02/20 17:12:46;;;;;;;81.33;75.17;;;8.90;94.70;;;;;;4925900;29;20190;-89
2023/02/20 17:15:14;;;;;;;90.40;83.70;;;8.90;94.60;;;;;;4919611;29;20204;-89
2023/02/20 17:17:40;;;;;;;89.27;82.87;;;8.90;94.70;;;;;;4919642;29;20648;-89
2023/02/20 17:20:10;;;;;;;94.73;87.90;;;8.90;94.70;;;;;;4936147;29;20541;-89
2023/02/20 17:22:37;;;;;;;97.07;91.00;;;8.90;94.80;;;;;;4918532;29;20184;-90
2023/02/20 17:25:02;;;;;;;98.50;91.60;;;8.90;94.80;;;;;;4918454;29;20200;-89
2023/02/20 17:27:28;;;;;;;103.30;95.97;;;8.90;94.80;;;;;;4918631;29;20208;-89
2023/02/20 17:29:53;;;;;;;105.50;98.80;;;8.80;94.90;;;;;;4918417;29;20692;-89
2023/02/20 17:32:19;;;;;;;105.03;98.40;;;8.80;95.00;;;;;;4918522;29;20191;-89
2023/02/20 17:34:44;;;;;;;108.83;101.10;;;8.80;95.00;;;;;;4918416;29;20210;-89
2023/02/20 17:37:11;;;;;;;106.30;99.63;;;8.90;95.00;;;;;;4918698;29;20297;-90
2023/02/20 17:39:38;;;;;;;114.27;106.60;;;8.90;95.00;;;;;;4921068;29;20195;-90
2023/02/20 17:42:04;;;;;;;119.03;110.80;;;8.80;95.00;;;;;;4920739;29;20164;-91
2023/02/20 17:44:30;;;;;;;114.17;106.47;;;8.80;95.00;;;;;;4922782;29;20208;-90